createdAt,value
2022-12-19T00:02:23.060Z,75.90
2022-12-19T00:05:13.369Z,73.57
2022-12-19T00:08:12.406Z,75.70
2022-12-19T00:11:06.355Z,86.47
2022-12-19T00:13:54.825Z,74.30
2022-12-19T00:16:43.331Z,69.30
2022-12-19T00:19:31.925Z,70.37
2022-12-19T00:22:20.558Z,75.43
2022-12-19T00:25:10.837Z,78.37
2022-12-19T00:27:59.702Z,76.50
2022-12-19T00:30:48.378Z,76.87
2022-12-19T00:33:37.852Z,72.60
2022-12-19T00:36:32.985Z,66.33
2022-12-19T00:39:21.472Z,70.60
2022-12-19T00:42:11.267Z,71.73
2022-12-19T00:44:59.906Z,66.30
2022-12-19T00:47:48.472Z,65.27
2022-12-19T00:50:36.957Z,68.23
2022-12-19T00:53:25.425Z,70.93
2022-12-19T00:56:15.767Z,70.63
2022-12-19T00:59:05.736Z,69.23
2022-12-19T01:01:54.236Z,69.83
2022-12-19T01:04:42.815Z,71.63
2022-12-19T01:07:31.298Z,70.03
2022-12-19T01:10:19.767Z,71.37
2022-12-19T01:13:07.233Z,64.83
2022-12-19T01:15:57.136Z,67.20
2022-12-19T01:18:45.636Z,76.00
2022-12-19T01:21:34.284Z,65.83
2022-12-19T01:24:22.791Z,69.70
2022-12-19T01:27:11.297Z,69.43
2022-12-19T01:29:59.786Z,77.97
2022-12-19T01:32:49.571Z,70.57
2022-12-19T01:35:38.060Z,69.67
2022-12-19T01:38:26.533Z,75.00
2022-12-19T01:41:15.034Z,62.03
2022-12-19T01:44:05.846Z,64.53
2022-12-19T01:46:57.500Z,60.40
2022-12-19T01:49:47.278Z,57.73
2022-12-19T01:52:35.701Z,59.53
2022-12-19T01:55:24.232Z,61.07
2022-12-19T01:58:14.010Z,64.13
2022-12-19T02:01:02.651Z,71.70
2022-12-19T02:03:51.753Z,65.07
2022-12-19T02:06:42.911Z,63.80
2022-12-19T02:09:31.366Z,62.53
2022-12-19T02:12:19.792Z,67.33
2022-12-19T02:15:11.097Z,68.73
2022-12-19T02:18:05.760Z,59.17
2022-12-19T02:21:14.436Z,62.90
2022-12-19T02:24:25.249Z,57.80
2022-12-19T02:27:26.419Z,64.03
2022-12-19T02:30:15.772Z,62.50
2022-12-19T02:33:13.720Z,64.20
2022-12-19T02:36:07.672Z,64.43
2022-12-19T02:39:00.113Z,61.07
2022-12-19T02:41:50.495Z,66.60
2022-12-19T02:44:43.364Z,57.43
2022-12-19T02:47:33.804Z,61.00
2022-12-19T02:50:23.998Z,61.10
2022-12-19T02:53:14.771Z,61.57
2022-12-19T02:56:21.334Z,67.70
2022-12-19T02:59:22.441Z,63.33
2022-12-19T03:02:17.322Z,65.03
2022-12-19T03:05:12.670Z,58.37
2022-12-19T03:08:06.849Z,57.83
2022-12-19T03:10:59.681Z,57.07
2022-12-19T03:13:53.384Z,63.43
2022-12-19T03:16:42.334Z,65.20
2022-12-19T03:19:31.092Z,57.97
2022-12-19T03:22:19.678Z,65.30
2022-12-19T03:25:10.093Z,62.83
2022-12-19T03:28:02.771Z,66.43
2022-12-19T03:30:51.662Z,65.17
2022-12-19T03:33:41.414Z,54.80
2022-12-19T03:36:33.119Z,62.70
2022-12-19T03:39:21.969Z,50.50
2022-12-19T03:42:29.464Z,61.80
2022-12-19T03:45:22.229Z,53.67
2022-12-19T03:48:12.810Z,57.13
2022-12-19T03:51:06.780Z,51.30
2022-12-19T03:54:00.673Z,61.07
2022-12-19T03:56:53.069Z,53.77
2022-12-19T03:59:46.267Z,57.80
2022-12-19T04:02:36.606Z,62.63
2022-12-19T04:05:27.252Z,60.10
2022-12-19T04:08:16.662Z,53.30
2022-12-19T04:11:08.591Z,60.37
2022-12-19T04:14:01.274Z,58.90
2022-12-19T04:16:54.574Z,56.93
2022-12-19T04:19:46.121Z,54.60
2022-12-19T04:22:37.794Z,62.30
2022-12-19T04:25:29.658Z,59.13
2022-12-19T04:28:20.124Z,61.43
2022-12-19T04:31:09.404Z,60.13
2022-12-19T04:33:59.266Z,56.57
2022-12-19T04:36:47.834Z,62.50
2022-12-19T04:39:36.303Z,62.27
2022-12-19T04:42:24.809Z,60.00
2022-12-19T04:45:13.853Z,61.80
2022-12-19T04:48:02.528Z,54.17
2022-12-19T04:50:52.394Z,57.53
2022-12-19T04:53:40.860Z,61.00
2022-12-19T04:56:29.347Z,59.40
2022-12-19T04:59:17.819Z,64.80
2022-12-19T05:02:06.376Z,57.03
2022-12-19T05:04:54.978Z,57.20
2022-12-19T05:07:44.776Z,58.23
2022-12-19T05:10:33.277Z,51.03
2022-12-19T05:13:21.768Z,61.70
2022-12-19T05:16:12.025Z,59.60
2022-12-19T05:19:00.820Z,56.37
2022-12-19T05:21:49.296Z,52.83
2022-12-19T05:24:39.176Z,58.10
2022-12-19T05:27:27.631Z,55.23
2022-12-19T05:30:16.193Z,55.67
2022-12-19T05:33:04.839Z,57.47
2022-12-19T05:35:53.299Z,58.57
2022-12-19T05:38:42.406Z,57.13
2022-12-19T05:41:32.238Z,59.37
2022-12-19T05:44:20.695Z,60.37
2022-12-19T05:47:09.239Z,63.07
2022-12-19T05:49:57.723Z,60.90
2022-12-19T05:52:46.235Z,54.30
2022-12-19T05:55:34.910Z,54.30
2022-12-19T05:58:24.671Z,68.10
2022-12-19T06:01:15.131Z,60.40
2022-12-19T06:04:04.302Z,58.30
2022-12-19T06:06:52.721Z,60.60
2022-12-19T06:09:41.173Z,54.23
2022-12-19T06:12:29.609Z,56.33
2022-12-19T06:15:19.350Z,58.00
2022-12-19T06:18:07.806Z,56.83
2022-12-19T06:20:59.213Z,53.30
2022-12-19T06:23:48.373Z,55.23
2022-12-19T06:26:36.874Z,58.73
2022-12-19T06:29:25.314Z,59.40
2022-12-19T06:32:15.200Z,56.30
2022-12-19T06:35:04.855Z,54.83
2022-12-19T06:37:56.603Z,53.37
2022-12-19T06:41:06.612Z,53.73
2022-12-19T06:43:58.389Z,56.73
2022-12-19T06:46:46.848Z,61.40
2022-12-19T06:49:36.709Z,55.03
2022-12-19T06:52:25.731Z,55.70
2022-12-19T06:55:14.468Z,65.37
2022-12-19T06:58:03.001Z,66.93
2022-12-19T07:00:52.004Z,71.27
2022-12-19T07:03:41.726Z,63.33
2022-12-19T07:06:31.515Z,62.40
2022-12-19T07:09:20.028Z,64.07
2022-12-19T07:12:08.950Z,62.50
2022-12-19T07:14:57.495Z,57.20
2022-12-19T07:17:45.962Z,58.13
2022-12-19T07:20:35.678Z,57.13
2022-12-19T07:23:25.578Z,55.93
2022-12-19T07:26:14.079Z,56.00
2022-12-19T07:29:02.895Z,52.90
2022-12-19T07:31:51.384Z,55.73
2022-12-19T07:34:39.924Z,59.90
2022-12-19T07:37:28.405Z,60.60
2022-12-19T07:40:18.972Z,52.37
2022-12-19T07:43:07.580Z,56.50
2022-12-19T07:45:56.638Z,54.67
2022-12-19T07:48:45.165Z,63.50
2022-12-19T07:51:33.880Z,58.53
2022-12-19T07:54:22.464Z,60.60
2022-12-19T07:57:12.328Z,56.23
2022-12-19T08:00:00.792Z,57.87
2022-12-19T08:02:49.492Z,59.20
2022-12-19T08:05:38.037Z,56.67
2022-12-19T08:08:26.539Z,53.57
2022-12-19T08:11:17.873Z,59.90
2022-12-19T08:14:07.826Z,53.93
2022-12-19T08:17:19.637Z,54.67
2022-12-19T08:20:05.484Z,59.67
2022-12-19T08:22:53.961Z,62.50
2022-12-19T08:25:42.437Z,56.23
2022-12-19T08:28:31.202Z,57.33
2022-12-19T08:31:21.662Z,60.13
2022-12-19T08:34:10.834Z,53.80
2022-12-19T08:36:59.410Z,52.47
2022-12-19T08:39:47.875Z,54.83
2022-12-19T08:42:36.313Z,51.50
2022-12-19T08:45:25.053Z,56.90
2022-12-19T08:48:14.931Z,59.10
2022-12-19T08:51:05.405Z,56.20
2022-12-19T08:53:53.997Z,60.17
2022-12-19T08:56:45.958Z,52.50
2022-12-19T08:59:35.158Z,57.57
2022-12-19T09:02:25.372Z,51.10
2022-12-19T09:06:01.224Z,57.00
2022-12-19T09:08:25.764Z,52.50
2022-12-19T09:11:15.645Z,57.73
2022-12-19T09:14:05.041Z,55.60
2022-12-19T09:16:53.678Z,53.53
2022-12-19T09:19:47.049Z,57.20
2022-12-19T09:22:38.102Z,56.13
2022-12-19T09:25:26.573Z,53.70
2022-12-19T09:28:27.349Z,51.57
2022-12-19T09:31:17.726Z,58.27
2022-12-19T09:34:06.488Z,54.67
2022-12-19T09:36:55.024Z,54.13
2022-12-19T09:39:45.168Z,54.57
2022-12-19T09:42:54.551Z,52.80
2022-12-19T09:45:51.949Z,57.87
2022-12-19T09:48:40.577Z,54.53
2022-12-19T09:51:33.966Z,53.27
2022-12-19T09:54:26.941Z,51.47
2022-12-19T09:57:19.846Z,51.90
2022-12-19T10:00:11.583Z,53.70
2022-12-19T10:03:02.740Z,48.37
2022-12-19T10:07:11.069Z,51.47
2022-12-19T10:11:04.735Z,54.63
2022-12-19T10:12:44.609Z,51.37
2022-12-19T10:15:43.486Z,47.27
2022-12-19T10:18:43.007Z,48.00
2022-12-19T10:22:16.939Z,51.57
2022-12-19T10:25:08.592Z,51.63
2022-12-19T10:28:09.590Z,48.03
2022-12-19T10:31:12.491Z,49.97
2022-12-19T10:34:07.727Z,50.20
2022-12-19T10:37:25.675Z,51.13
2022-12-19T10:40:20.995Z,52.27
2022-12-19T10:43:32.797Z,50.67
2022-12-19T10:46:31.314Z,52.87
2022-12-19T10:49:22.071Z,51.60
2022-12-19T10:52:12.554Z,53.53
2022-12-19T10:55:01.142Z,47.47
2022-12-19T10:57:49.727Z,56.07
2022-12-19T11:00:47.700Z,49.40
2022-12-19T11:03:36.958Z,53.93
2022-12-19T11:06:47.563Z,53.50
2022-12-19T11:09:38.895Z,52.93
2022-12-19T11:15:45.432Z,50.50
2022-12-19T11:18:03.602Z,49.50
2022-12-19T11:29:16.199Z,53.53
2022-12-19T11:29:27.699Z,52.83
2022-12-19T11:30:46.771Z,50.60
2022-12-19T11:30:47.657Z,51.67
2022-12-19T11:34:50.323Z,51.07
2022-12-19T11:37:42.099Z,52.23
2022-12-19T11:40:34.387Z,52.10
2022-12-19T11:43:45.805Z,57.07
2022-12-19T11:46:40.208Z,56.40
2022-12-19T11:49:31.135Z,54.03
2022-12-19T11:53:03.484Z,50.60
2022-12-19T11:55:45.484Z,51.87
2022-12-19T11:58:33.994Z,46.83
2022-12-19T12:01:36.920Z,46.77
2022-12-19T12:05:00.636Z,49.10
2022-12-19T12:09:35.209Z,50.77
2022-12-19T12:17:09.185Z,53.83
2022-12-19T12:25:47.075Z,50.97
2022-12-19T12:31:01.919Z,50.23
2022-12-19T12:31:05.599Z,54.40
2022-12-19T12:31:41.881Z,48.17
2022-12-19T12:31:58.475Z,50.27
2022-12-19T12:32:04.004Z,62.03
2022-12-19T12:35:43.567Z,57.30
2022-12-19T12:41:03.140Z,54.10
2022-12-19T12:44:02.114Z,52.80
2022-12-19T12:46:54.836Z,50.03
2022-12-19T12:49:45.835Z,48.63
2022-12-19T12:52:37.309Z,41.53
2022-12-19T12:55:28.786Z,44.73
2022-12-19T12:58:46.368Z,42.97
2022-12-19T13:01:37.410Z,46.40
2022-12-19T13:04:29.626Z,45.20
2022-12-19T13:07:23.268Z,44.77
2022-12-19T13:10:24.098Z,50.13
2022-12-19T13:13:21.144Z,45.73
2022-12-19T13:16:45.991Z,43.03
2022-12-19T13:19:37.236Z,45.70
2022-12-19T13:22:40.357Z,46.80
2022-12-19T13:25:50.709Z,41.43
2022-12-19T13:28:42.603Z,56.70
2022-12-19T13:31:36.895Z,42.50
2022-12-19T13:34:36.966Z,46.73
2022-12-19T13:39:57.817Z,44.60
2022-12-19T13:41:01.138Z,50.07
2022-12-19T13:43:49.718Z,48.93
2022-12-19T13:46:41.487Z,41.40
2022-12-19T13:49:32.892Z,52.57
2022-12-19T13:52:24.231Z,45.60
2022-12-19T13:55:15.124Z,46.43
2022-12-19T13:58:05.756Z,46.13
2022-12-19T14:00:56.512Z,42.30
2022-12-19T14:03:46.418Z,48.53
2022-12-19T14:06:40.918Z,46.33
2022-12-19T14:11:27.698Z,44.43
2022-12-19T14:13:58.967Z,42.50
2022-12-19T14:16:44.250Z,47.87
2022-12-19T14:19:39.610Z,53.57
2022-12-19T14:22:28.192Z,47.90
2022-12-19T14:26:06.074Z,53.00
2022-12-19T14:28:37.875Z,48.90
2022-12-19T14:31:27.420Z,48.30
2022-12-19T14:35:47.748Z,55.00
2022-12-19T14:39:18.201Z,52.93
2022-12-19T14:40:43.336Z,50.40
2022-12-19T14:43:58.538Z,55.30
2022-12-19T14:52:53.598Z,48.43
2022-12-19T14:54:24.347Z,47.20
2022-12-19T14:54:40.048Z,52.53
2022-12-19T14:57:01.244Z,50.80
2022-12-19T14:59:50.312Z,44.93
2022-12-19T15:02:39.474Z,53.60
2022-12-19T15:05:30.286Z,55.07
2022-12-19T15:09:02.593Z,50.60
2022-12-19T15:13:30.469Z,49.30
2022-12-19T15:15:22.124Z,50.90
2022-12-19T15:18:23.166Z,50.57
2022-12-19T15:21:13.730Z,59.60
2022-12-19T15:24:02.257Z,89.57
2022-12-19T15:26:53.321Z,106.53
2022-12-19T15:29:42.637Z,76.73
2022-12-19T15:32:32.514Z,63.20
2022-12-19T15:35:21.008Z,56.70
2022-12-19T15:38:10.674Z,61.67
2022-12-19T15:40:59.201Z,53.47
2022-12-19T15:44:04.800Z,51.13
2022-12-19T15:46:55.311Z,43.23
2022-12-19T15:49:45.176Z,44.47
2022-12-19T15:52:33.630Z,45.77
2022-12-19T15:55:24.096Z,48.90
2022-12-19T15:58:14.403Z,58.27
2022-12-19T16:01:04.982Z,45.90
2022-12-19T16:03:53.881Z,53.17
2022-12-19T16:06:44.100Z,68.13
2022-12-19T16:09:33.545Z,59.83
2022-12-19T16:12:25.610Z,56.03
2022-12-19T16:15:17.297Z,59.13
2022-12-19T16:18:05.911Z,59.73
2022-12-19T16:20:54.520Z,74.33
2022-12-19T16:23:44.332Z,66.37
2022-12-19T16:26:35.369Z,55.80
2022-12-19T16:29:25.578Z,52.70
2022-12-19T16:32:14.629Z,51.03
2022-12-19T16:35:03.100Z,48.03
2022-12-19T16:37:51.657Z,46.83
2022-12-19T16:40:41.528Z,45.50
2022-12-19T16:43:33.334Z,47.33
2022-12-19T16:46:26.041Z,54.47
2022-12-19T16:49:15.548Z,58.40
2022-12-19T16:52:04.162Z,53.97
2022-12-19T16:54:53.486Z,55.40
2022-12-19T16:57:43.947Z,57.57
2022-12-19T17:00:32.793Z,61.90
2022-12-19T17:03:28.539Z,61.33
2022-12-19T17:06:18.845Z,56.00
2022-12-19T17:09:07.351Z,53.73
2022-12-19T17:12:01.887Z,59.67
2022-12-19T17:14:51.859Z,62.23
2022-12-19T17:17:40.559Z,54.67
2022-12-19T17:20:38.669Z,60.43
2022-12-19T17:23:29.323Z,61.17
2022-12-19T17:26:18.574Z,60.90
2022-12-19T17:29:10.171Z,77.40
2022-12-19T17:32:00.182Z,64.60
2022-12-19T17:34:48.793Z,75.00
2022-12-19T17:37:37.349Z,61.17
2022-12-19T17:40:27.688Z,58.60
2022-12-19T17:43:16.274Z,65.47
2022-12-19T17:46:05.212Z,74.17
2022-12-19T17:48:55.178Z,73.57
2022-12-19T17:51:45.180Z,73.37
2022-12-19T17:54:34.490Z,77.37
2022-12-19T17:57:22.971Z,62.20
2022-12-19T18:00:12.854Z,62.63
2022-12-19T18:03:05.606Z,71.90
2022-12-19T18:05:56.588Z,72.10
2022-12-19T18:08:45.430Z,77.70
2022-12-19T18:11:38.409Z,66.37
2022-12-19T18:14:30.243Z,81.63
2022-12-19T18:17:24.319Z,77.93
2022-12-19T18:20:29.396Z,83.03
2022-12-19T18:23:24.775Z,76.23
2022-12-19T18:26:13.810Z,75.00
2022-12-19T18:29:03.330Z,77.30
2022-12-19T18:31:52.163Z,92.50
2022-12-19T18:34:40.643Z,67.40
2022-12-19T18:37:29.140Z,94.47
2022-12-19T18:40:27.560Z,85.27
2022-12-19T18:43:20.077Z,77.13
2022-12-19T18:46:13.487Z,80.67
2022-12-19T18:49:02.050Z,73.10
2022-12-19T18:51:50.565Z,79.77
2022-12-19T18:54:39.054Z,69.50
2022-12-19T18:57:28.869Z,74.30
2022-12-19T19:00:19.390Z,84.53
2022-12-19T19:03:12.599Z,82.90
2022-12-19T19:06:01.371Z,81.77
2022-12-19T19:08:51.673Z,79.97
2022-12-19T19:11:40.176Z,71.03
2022-12-19T19:14:30.172Z,80.30
2022-12-19T19:17:25.011Z,68.47
2022-12-19T19:20:13.850Z,75.33
2022-12-19T19:23:02.616Z,84.63
2022-12-19T19:25:51.177Z,80.67
2022-12-19T19:28:39.747Z,79.37
2022-12-19T19:31:31.737Z,84.97
2022-12-19T19:34:22.684Z,75.23
2022-12-19T19:37:12.173Z,85.03
2022-12-19T19:40:00.734Z,91.87
2022-12-19T19:42:49.223Z,99.43
2022-12-19T19:45:42.923Z,87.63
2022-12-19T19:48:33.439Z,94.83
2022-12-19T19:51:22.211Z,89.30
2022-12-19T19:54:10.831Z,91.90
2022-12-19T19:56:59.627Z,92.50
2022-12-19T19:59:48.205Z,81.37
2022-12-19T20:02:37.037Z,74.33
2022-12-19T20:05:27.031Z,73.13
2022-12-19T20:08:15.841Z,70.87
2022-12-19T20:11:04.347Z,67.50
2022-12-19T20:13:52.830Z,66.63
2022-12-19T20:16:43.354Z,69.70
2022-12-19T20:19:31.947Z,71.57
2022-12-19T20:22:21.908Z,82.50
2022-12-19T20:25:10.613Z,77.17
2022-12-19T20:27:59.185Z,76.63
2022-12-19T20:30:48.082Z,69.57
2022-12-19T20:33:36.776Z,70.00
2022-12-19T20:36:25.648Z,74.70
2022-12-19T20:39:21.765Z,69.30
2022-12-19T20:42:10.373Z,68.03
2022-12-19T20:44:59.225Z,77.63
2022-12-19T20:47:47.890Z,70.73
2022-12-19T20:50:42.629Z,65.20
2022-12-19T20:53:31.556Z,66.80
2022-12-19T20:56:23.315Z,74.13
2022-12-19T20:59:11.887Z,58.30
2022-12-19T21:02:01.021Z,66.90
2022-12-19T21:04:49.749Z,67.80
2022-12-19T21:07:38.531Z,75.67
2022-12-19T21:10:27.021Z,72.17
2022-12-19T21:13:17.192Z,69.20
2022-12-19T21:16:08.675Z,69.43
2022-12-19T21:18:57.418Z,69.73
2022-12-19T21:21:45.889Z,75.20
2022-12-19T21:24:34.339Z,88.97
2022-12-19T21:27:22.787Z,69.80
2022-12-19T21:30:13.315Z,75.40
2022-12-19T21:33:01.869Z,66.80
2022-12-19T21:35:50.350Z,68.90
2022-12-19T21:38:39.342Z,61.73
2022-12-19T21:41:27.784Z,74.97
2022-12-19T21:44:16.262Z,64.60
2022-12-19T21:47:06.550Z,68.70
2022-12-19T21:49:55.092Z,76.67
2022-12-19T21:52:43.588Z,71.03
2022-12-19T21:55:32.067Z,64.73
2022-12-19T21:58:20.578Z,77.20
2022-12-19T22:01:10.387Z,70.50
2022-12-19T22:04:01.575Z,75.70
2022-12-19T22:06:51.590Z,66.23
2022-12-19T22:09:40.131Z,66.50
2022-12-19T22:12:28.624Z,68.83
2022-12-19T22:15:17.208Z,67.03
2022-12-19T22:18:05.800Z,67.60
2022-12-19T22:20:58.122Z,69.23
2022-12-19T22:23:46.865Z,63.00
2022-12-19T22:26:35.536Z,70.70
2022-12-19T22:29:24.320Z,72.17
2022-12-19T22:32:12.888Z,74.67
2022-12-19T22:35:01.421Z,73.87
2022-12-19T22:38:02.677Z,67.73
2022-12-19T22:40:51.180Z,62.73
2022-12-19T22:43:40.326Z,73.10
2022-12-19T22:46:31.071Z,68.73
2022-12-19T22:49:19.725Z,63.87
2022-12-19T22:52:08.232Z,62.07
2022-12-19T22:54:58.093Z,67.83
2022-12-19T22:57:46.637Z,56.67
2022-12-19T23:00:35.193Z,62.47
2022-12-19T23:03:23.733Z,63.93
2022-12-19T23:06:12.567Z,54.93
2022-12-19T23:09:01.388Z,57.77
2022-12-19T23:11:51.275Z,62.63
2022-12-19T23:14:39.791Z,55.67
2022-12-19T23:17:28.274Z,60.63
2022-12-19T23:20:16.842Z,54.93
2022-12-19T23:23:05.880Z,54.90
2022-12-19T23:25:54.840Z,51.63
2022-12-19T23:28:45.679Z,51.10
2022-12-19T23:31:35.111Z,53.00
2022-12-19T23:34:23.634Z,59.70
2022-12-19T23:37:12.794Z,58.33
2022-12-19T23:40:01.490Z,57.07
2022-12-19T23:42:49.957Z,60.20
2022-12-19T23:45:40.147Z,52.93
2022-12-19T23:48:29.465Z,61.27
2022-12-19T23:51:19.479Z,54.43
2022-12-19T23:54:08.719Z,59.33
2022-12-19T23:56:57.233Z,47.43
2022-12-19T23:59:45.781Z,54.97
